Historique des mesures à Cassis (13260), France
Quotidien Résumé Janvier 21, 2018 Unités:  US    Métrique   Métrique/US
« Précédent (Jour)
Suivant (Jour) »
Quotidien Hebdomadaire Mensuel Annuel Période au choix
  Maximum: Minimum: Moyenne:
Température: TemperatureC °F 13.3 °F 14 °F
Point de rosée: DewpointC °F 2.4 °F 6.5 °F
Humidité: Humidity % 43 % 58 %
Vitesse du vent: WindSpeedKMH mph 9.7 mph 23.4 mph
Rafales: WindSpeedGustKMH mph - -
Vent:- - WNW
Pression: PressurehPa in 1005.0 in -
Précipitations: 0.0 in    
Historical Graphs
 
 
Mesures pour : Janvier 21, 2018
Heure Temperature Point de rosée Pression Vent Vitesse du vent Rafales Humidité Pluie (par heure) Conditions
TemperatureC °F DewpointC °F PressurehPa in Calm     Humidity % HourlyPrecipMM in SoftwareType W/m2
00:12 13.3 °F 9.9 °F 1006.3 in West 25.9 mph 31.4 mph 80 % 0.0 in open2300-1.11 W/m2
01:12 13.4 °F 10.0 °F 1005.6 in West 31.4 mph 31.7 mph 80 % 0.0 in open2300-1.11 W/m2
02:12 13.9 °F 10.1 °F 1005.3 in West 33.8 mph 38.9 mph 78 % 0.0 in open2300-1.11 W/m2
03:12 13.9 °F 10.1 °F 1006.0 in NW 13.0 mph 24.5 mph 78 % 0.0 in open2300-1.11 W/m2
04:12 13.9 °F 9.9 °F 1005.3 in WNW 23.3 mph 38.1 mph 77 % 0.0 in open2300-1.11 W/m2
05:12 13.9 °F 9.3 °F 1005.3 in WNW 32.8 mph 33.1 mph 74 % 0.0 in open2300-1.11 W/m2
06:12 14.4 °F 6.8 °F 1005.0 in NNW 10.5 mph 21.6 mph 60 % 0.0 in open2300-1.11 W/m2
07:12 14.4 °F 5.7 °F 1005.3 in WNW 36.7 mph 36.7 mph 56 % 0.0 in open2300-1.11 W/m2
08:12 13.9 °F 5.5 °F 1006.3 in NW 17.2 mph 24.8 mph 57 % 0.0 in open2300-1.11 W/m2
10:12 14.4 °F 3.8 °F 1007.7 in WNW 19.8 mph 19.8 mph 49 % 0.0 in open2300-1.11 W/m2
11:12 14.9 °F 2.4 °F 1008.4 in NW 32.0 mph 33.8 mph 43 % 0.0 in open2300-1.11 W/m2
12:12 15.2 °F 3.3 °F 1009.4 in NNW 31.7 mph 31.7 mph 45 % 0.0 in open2300-1.11 W/m2
13:12 15.5 °F 4.2 °F 1008.7 in WNW 30.9 mph 30.9 mph 47 % 0.0 in open2300-1.11 W/m2
14:12 15.5 °F 4.5 °F 1009.0 in WNW 28.5 mph 33.1 mph 48 % 0.0 in open2300-1.11 W/m2
15:12 15.5 °F 5.2 °F 1009.0 in WNW 23.0 mph 31.7 mph 50 % 0.0 in open2300-1.11 W/m2
16:12 15.3 °F 5.2 °F 1009.4 in WNW 36.4 mph 36.4 mph 51 % 0.0 in open2300-1.11 W/m2
17:12 14.9 °F 5.7 °F 1009.4 in NNW 27.4 mph 27.4 mph 54 % 0.0 in open2300-1.11 W/m2
18:12 14.8 °F 6.3 °F 1010.0 in West 22.7 mph 22.7 mph 57 % 0.0 in open2300-1.11 W/m2
19:12 15.2 °F 6.9 °F 1010.4 in NW 14.8 mph 24.1 mph 58 % 0.0 in open2300-1.11 W/m2
20:12 15.1 °F 7.1 °F 1011.1 in NW 24.5 mph 24.5 mph 59 % 0.0 in open2300-1.11 W/m2
21:12 15.3 °F 7.6 °F 1011.7 in NNE 23.8 mph 23.8 mph 60 % 0.0 in open2300-1.11 W/m2
22:12 15.0 °F 7.5 °F 1012.1 in NNW 11.9 mph 18.7 mph 61 % 0.0 in open2300-1.11 W/m2
23:12 15.1 °F 7.9 °F 1012.4 in NNW 9.7 mph 29.4 mph 62 % 0.0 in open2300-1.11 W/m2
Observations météo à CASSIS
WU-History script by Weather Underground - 1 mb